Tiempo atmosférico en la estación meteorológica de Utiel, València/Valencia (761 m.)



Fecha
DESCASC
Temp. máxima en grados centígrados (hora)
DESCASC
Temp. mínima en grados centígrados (hora)
DESCASC
Temp. media en grados centígrados
DESCASC
Racha de viento máxima en m/sg (hora)
DESCASC
Velocidad máxima media en intervalos de 10 minutos(hora)
DESCASC
Precipitaciones diarias en mm
DESCASC
Precipitaciones de 00:00 a 06:00 en mm
DESCASC
Precipitaciones de 06:00 a 12:00 en mm
DESCASC
Precipitaciones de 12:00 a 18:00 en mm
DESCASC
Precipitaciones de 18:00 a 24:00 en mm
DESCASC
22-01-2020 9.2 (13:30) 1.9 (23:59) 5.5 9.17 (13:50) 6.67 (13:50) 10.4 0.4 9 1 0
21-01-2020 5.5 (23:40) 0.9 (14:50) 3.2 14.17 (10:20) 10 (10:20) 45.8 7 15.4 21.8 1.6
20-01-2020 5 (17:40) -0.7 (05:50) 2.2 19.44 (12:30) 10.56 (13:20) 23.8 1 5.2 6 11.6
19-01-2020 9 (00:00) 0.5 (00:00) 4.8 12.5 (06:00) 8.33 (22:20) 24.8 0.6 1.4 17.8 5
18-01-2020 11.7 (14:40) 1.8 (00:00) 6.7 10.83 (14:00) 7.5 (13:50) 0.4 0 0 0 0.4
17-01-2020 12.9 (15:50) 1.1 (00:00) 7 12.5 (13:00) 8.61 (13:10) 0 0 0 0 0
16-01-2020 15.5 (15:00) -1.2 (-00:0) 7.1 7.5 (15:50) 4.72 (15:40) 0 0 0 0 0
15-01-2020 13.9 (14:50) 2.2 (00:00) 8 11.39 (15:50) 7.5 (15:40) 0 0 0 0 0
14-01-2020 13.4 (16:10) -4.7 (-00:0) 4.3 6.39 (21:10) 5 (23:50) 0 0 0 0 0
13-01-2020 12.5 (15:20) -6 (-00:0) 3.3 7.5 (14:00) 5.83 (14:00) 0 0 0 0 0
12-01-2020 12.4 (16:10) -5.9 (07:40) 3.2 4.72 (15:10) 3.33 (15:20) 0 0 0 0 0
11-01-2020 12.4 (16:00) -1.3 (-00:0) 5.5 6.39 (01:30) 5 (03:40) 0 0 0 0 0
10-01-2020 11.7 (14:50) -0.8 (-00:0) 5.4 14.44 (11:00) 10.28 (11:30) 0 0 0 0 0
09-01-2020 13.4 (14:00) -2.6 (-00:0) 5.4 5 (14:40) 3.61 (14:40) 0 0 0 0 0
08-01-2020 13.5 (13:20) -2.4 (-00:0) 5.5 9.17 (15:30) 7.5 (15:30) 0 0 0 0 0
07-01-2020 15.6 (15:50) -3.4 (-00:0) 6.1 5 (14:50) 3.33 (14:40) 0 0 0 0 0
06-01-2020 16.9 (16:10) -2.9 (-00:0) 7 5.83 (14:10) 4.44 (14:10) 0 0 0 0 0
05-01-2020 15.3 (15:40) -2.3 (-00:0) 6.5 4.17 (03:00) 3.61 (03:10) 0 0 0 0 0
04-01-2020 13.2 (15:40) -3.2 (-00:0) 5 6.67 (16:20) 4.44 (15:20) 0 0 0 0 0
03-01-2020 14.8 (16:00) -3 (-00:0) 5.9 5.28 (14:20) 3.89 (14:20) 0 0 0 0 0
02-01-2020 12.5 (16:10) -3.8 (-00:0) 4.4 4.72 (14:30) 3.33 (15:10) 0 0 0 0 0
01-01-2020 10.7 (15:20) -4.1 (-00:0) 3.3 3.61 (15:50) 2.78 (15:50) 0 0 0 0 0
31-12-2019 11.8 (15:40) -2.2 (-00:0) 4.8 4.44 (12:20) 3.06 (09:00) 0 0 0 0 0
30-12-2019 10.3 (15:20) -3.3 (-00:0) 3.5 3.89 (00:30) 3.33 (00:20) 0 0 0 0 0
29-12-2019 10.8 (14:20) -2.8 (-00:0) 4 4.72 (13:40) 3.33 (13:40) 0 0 0 0 0
28-12-2019 15.6 (15:30) -2.6 (-00:0) 6.5 4.72 (13:30) 3.89 (20:40) 0 0 0 0 0
27-12-2019 17.1 (16:30) 0.6 (00:00) 8.9 4.72 (04:10) 3.61 (04:20) 0 0 0 0 0
26-12-2019 20.3 (13:50) 1.7 (00:00) 11 9.17 (11:50) 6.67 (13:50) 0 0 0 0 0

Gráficas

Temp. máximas Temp. mínimas Temp. medias Precipitaciones Rachas de viento máximas Velocidades máximas media en intervalos de 10 minutos

Datos horarios

Fecha y hora oficial Temperatura (ºC) Velocidad del viento (km/h) Dirección del viento Racha (km/h) Dirección de racha Precipitación (mm) Presión (hPa) Tendencia (hPa) Humedad (%)
2020-01-24 23:00:00 6.8 3 Sur 13 Sudeste 0 932.7 0.4 91
2020-01-24 22:00:00 7.1 10 Sudeste 15 Sudeste 0 932.6 0.7 90
2020-01-24 21:00:00 7.4 4 Sur 8 Sudeste 0 932.3 0.6 88
2020-01-24 20:00:00 7.8 8 Sudeste 16 Sudeste 0 932.3 0.5 87
2020-01-24 19:00:00 8.4 10 Sudeste 14 Sudeste 0 931.9 0 82
2020-01-24 18:00:00 9 4 Sudeste 10 Sudeste 0 931.7 -0.7 75
2020-01-24 17:00:00 9.6 3 Sur 13 Sudeste 0 931.8 -1.4 72
2020-01-24 16:00:00 9.6 4 Sudeste 13 Este 0 931.9 -2 73
2020-01-24 15:00:00 9.2 6 Sudeste 11 Este 0 932.4 -2.1 75
2020-01-24 14:00:00 8.1 4 Sudeste 12 Sudeste 0 933.2 -1 80
2020-01-24 13:00:00 8.2 7 Sudeste 13 Sudeste 0 933.9 0.1 82
2020-01-24 12:00:00 7.9 5 Sudeste 8 Sur 0 934.5 0.9 82
2020-01-24 11:00:00 6.3 0 Calma 8 Norte 0 934.2 0.8 87
2020-01-24 10:00:00 5 3 Norte 9 Norte 0 933.8 0.9 94
2020-01-24 09:00:00 3.8 4 Noroeste 8 Noroeste 0 933.6 0.7 95
2020-01-24 08:00:00 3.5 5 Noroeste 10 Norte 0 933.4 0.3 95
2020-01-24 07:00:00 3.4 6 Noroeste 12 Noroeste 0 932.9 -0.5 95
2020-01-24 06:00:00 3.1 7 Noroeste 9 Norte 0 932.9 -0.6 96
2020-01-24 05:00:00 2.9 6 Norte 10 Norte 0 933.1 -0.5 96
2020-01-24 04:00:00 3.4 5 Noroeste 8 Norte 0 933.4 -0.5 96
2020-01-24 03:00:00 4.1 3 Noroeste 8 Norte 0 933.5 -0.1 95
2020-01-24 02:00:00 4.7 5 Norte 8 Norte 0 933.6 -0.1 94
2020-01-24 01:00:00 5.7 4 Este 9 Este 0 933.9 0.6 94
2020-01-24 00:00:00 5.9 7 Sudeste 18 Sudeste 0 933.6 0.6 93
2020-01-23 23:00:00 6.5 12 Sudeste 20 Sudeste 0 933.7 1.1 93
2020-01-23 22:00:00 6.5 10 Sudeste 16 Sudeste 0 933.3 1.2 92
2020-01-23 21:00:00 6.5 8 Sudeste 14 Sudeste 0 933 1.4 90
2020-01-23 20:00:00 6.7 10 Sudeste 17 Sudeste 0 932.6 1.3 88
2020-01-23 19:00:00 7.1 10 Sudeste 19 Sudeste 0 932.1 0.9 86
2020-01-23 18:00:00 7.6 13 Sudeste -- -- 0 931.6 0.4 82
2020-01-23 17:00:00 8.2 13 Sudeste 22 Sudeste 0 931.3 -0.3 78
2020-01-23 16:00:00 8.7 14 Sudeste 26 Sudeste 0 931.2 -1.1 75
2020-01-23 15:00:00 8.6 18 Sudeste 25 Sudeste 0 931.2 -1.7 73
2020-01-23 14:00:00 8.8 18 Sudeste 25 Sudeste 0 931.6 -1 75
2020-01-23 13:00:00 8.9 11 Sudeste 17 Sudeste 0 932.3 0.3 74
2020-01-23 12:00:00 7.1 3 Nordeste 10 Norte 0 932.9 1.5 75
2020-01-23 11:00:00 4.3 3 Nordeste 9 Noroeste 0 932.6 1.5 85
2020-01-23 10:00:00 1.8 8 Noroeste 14 Norte 0 932 1.5 91
2020-01-23 09:00:00 1.2 11 Norte 18 Norte 0 931.4 1.4 92
2020-01-23 08:00:00 0.9 12 Noroeste 15 Noroeste 0 931.1 1 93
2020-01-23 07:00:00 0.7 9 Noroeste 15 Noroeste 0 930.5 -0.2 93
2020-01-23 06:00:00 0.7 9 Noroeste 12 Norte 0 930 -0.7 93
2020-01-23 05:00:00 1.1 11 Noroeste 21 Noroeste 0 930.1 -0.8 91
2020-01-23 04:00:00 1.8 13 Noroeste 18 Noroeste 0 930.7 -0.2 90
2020-01-23 03:00:00 1.9 12 Noroeste 19 Noroeste 0 930.7 0 91
2020-01-23 02:00:00 1.4 10 Noroeste 16 Noroeste 0 930.9 0.6 92
2020-01-23 01:00:00 1.8 12 Noroeste 17 Noroeste 0 930.9 0.9 91
2020-01-23 00:00:00 1.9 10 Noroeste 14 Noroeste 0 930.7 0.7 92
2020-01-22 23:00:00 2.5 11 Noroeste 18 Noroeste 0 930.3 0.5 91
2020-01-22 22:00:00 2.9 14 Noroeste 19 Noroeste 0 930 0.6 92
2020-01-22 21:00:00 3.6 12 Noroeste 15 Noroeste 0 930 1.2 93
2020-01-22 20:00:00 4.5 8 Noroeste 15 Noroeste 0 929.8 0.5 91
2020-01-22 19:00:00 6 4 Noroeste 10 Nordeste 0 929.4 -0.2 81
2020-01-22 18:00:00 7.7 7 Norte 21 Este 0 928.8 -1.1 69
2020-01-22 17:00:00 7.1 11 Nordeste 15 Este 0 929.3 -1.4 77
2020-01-22 16:00:00 8 10 Nordeste 26 Nordeste 0 929.6 -1.5 75
2020-01-22 15:00:00 8.2 12 Norte 33 Este 0.8 929.9 -1.6 81
2020-01-22 14:00:00 7.5 15 Este 33 Este 0.2 930.7 -1 73
2020-01-22 13:00:00 8.3 9 Este 18 Este 0 931.1 -0.4 73
2020-01-22 12:00:00 8 6 Este 14 Este 0 931.5 0.3 80
2020-01-22 11:00:00 5.4 9 Norte 14 Norte 0.4 931.7 1.2 93
2020-01-22 10:00:00 5 9 Sudeste 25 Sudeste 5.6 931.5 1.4 92
2020-01-22 09:00:00 5.4 9 Sudeste 18 Este 2.6 931.2 1.2 93
2020-01-22 08:00:00 5.4 5 Este 14 Este 0.2 930.5 0.3 92
2020-01-22 07:00:00 4.8 4 Este 11 Noroeste 0.2 930.1 -0.2 95
2020-01-22 06:00:00 4.1 8 Noroeste 9 Noroeste 0.2 930 -0.1 95
2020-01-22 05:00:00 4.9 2 Este 9 Sudeste 0.2 930.2 0.3 94
2020-01-22 04:00:00 5 5 Sudeste 11 Este 0 930.3 0.4 93
2020-01-22 03:00:00 5.8 10 Este 19 Sudeste 0 930.1 0.2 90
2020-01-22 02:00:00 5.9 12 Este 18 Sudeste 0 929.9 0.5 90
2020-01-22 01:00:00 5.8 9 Este 13 Este 0 929.9 0.8 89
2020-01-22 00:00:00 5.4 7 Nordeste 14 Sudeste 0 929.9 1.2 91
2020-01-21 23:00:00 4.7 6 Norte 17 Noroeste 0 929.4 1.5 93
2020-01-21 22:00:00 3.6 10 Noroeste 17 Noroeste 0 929.1 1.7 93
2020-01-21 21:00:00 3.6 13 Noroeste 19 Norte 0 928.7 1.6 93
2020-01-21 20:00:00 3 6 Noroeste 19 Noroeste 1 927.9 1.4 94
2020-01-21 19:00:00 2.7 13 Noroeste 21 Norte 0.6 927.4 1.3 93
2020-01-21 18:00:00 2.4 12 Oeste 30 Norte 0.4 927.1 0.7 93
2020-01-21 17:00:00 1.8 23 Norte 41 Noroeste 1.2 926.5 -1.1 94
2020-01-21 16:00:00 1.5 24 Norte 40 Norte 3.4 926.1 -1.1 96
2020-01-21 15:00:00 1 27 Norte 38 Norte 5.6 926.4 -1.9 95
2020-01-21 14:00:00 1.6 20 Norte 34 Norte 5.8 927.6 0.3 95
2020-01-21 13:00:00 2 26 Norte 32 Noroeste 5.4 927.2 -0.4 95
2020-01-21 12:00:00 2.3 20 Norte 35 Norte 4.2 928.3 0.3 94
2020-01-21 11:00:00 2.1 23 Norte 51 Norte 1.2 927.3 -0.2 95
2020-01-21 10:00:00 1.7 30 Norte 44 Norte 1.4 927.6 0.4 93
2020-01-21 09:00:00 2.9 23 Norte 39 Norte 3.6 928 0.3 92
2020-01-21 08:00:00 3.2 22 Norte 38 Nordeste 3.2 927.5 -0.8 91
2020-01-21 07:00:00 1.9 25 Norte 42 Norte 1.8 927.2 -1.9 94
2020-01-21 06:00:00 3.1 22 Norte 35 Norte 1 927.7 -2.3 90
2020-01-21 05:00:00 3.2 21 Norte 31 Norte 0.8 928.3 -3.2 91
2020-01-21 04:00:00 2.5 20 Norte 31 Noroeste 0.4 929.1 -2.5 92
2020-01-21 03:00:00 3.4 26 Norte 32 Noroeste 0.4 930 -1.5 89
2020-01-21 02:00:00 2.7 5 Norte 22 Norte 2.4 931.5 0.4 93
2020-01-21 01:00:00 3.4 14 Norte 27 Norte 2 931.6 0.5 90
2020-01-21 00:00:00 3.6 10 Noroeste 39 Nordeste 1.2 931.5 1 86
2020-01-20 23:00:00 4.4 22 Nordeste 39 Nordeste 0.8 931.1 0 83
2020-01-20 22:00:00 3.9 12 Norte 48 Nordeste 1.8 931.1 0.5 85
2020-01-20 21:00:00 3.7 29 Nordeste 45 Nordeste 3.8 930.5 0.1 88
2020-01-20 20:00:00 4 19 Nordeste 55 Nordeste 1.8 931.1 1 84
2020-01-20 19:00:00 4.1 19 Nordeste 40 Nordeste 2.2 930.6 0.7 84
2020-01-20 18:00:00 4.9 19 Nordeste 46 Nordeste 0.2 930.4 0 79
2020-01-20 17:00:00 4.7 23 Nordeste 46 Nordeste 1.2 930.1 -0.7 81
2020-01-20 16:00:00 4.7 22 Nordeste 56 Nordeste 1 929.9 -0.9 82
2020-01-20 15:00:00 4.4 26 Nordeste 52 Nordeste 1 930.4 -0.9 80
2020-01-20 14:00:00 4 22 Nordeste 62 Nordeste 1.4 930.8 -0.2 80
2020-01-20 13:00:00 3.8 36 Nordeste 70 Nordeste 1.2 930.8 0.4 78
2020-01-20 12:00:00 4.4 26 Nordeste 57 Nordeste 1.6 931.3 1.4 73
2020-01-20 11:00:00 3.5 19 Nordeste 43 Norte 1.6 931 1 74
2020-01-20 10:00:00 0.8 28 Noroeste 42 Noroeste 0.4 930.4 0.6 82
2020-01-20 09:00:00 -0.4 30 Noroeste 43 Norte 0.8 929.9 -0.4 88
2020-01-20 08:00:00 -0.6 23 Norte 32 Norte 0.4 930 -0.4 95
2020-01-20 07:00:00 -0.6 23 Norte 38 Norte 0.4 929.8 -1 95
2020-01-20 06:00:00 -0.6 23 Norte 37 Norte 0.2 930.3 -0.8 91
2020-01-20 05:00:00 -0.2 23 Norte 33 Norte 0.6 930.4 -1.3 85
2020-01-20 04:00:00 0.2 20 Norte 31 Norte 0.2 930.8 -0.9 81
2020-01-20 03:00:00 1.1 21 Norte 32 Norte 0 931.1 -0.5 73
2020-01-20 02:00:00 1.2 16 Norte 39 Norte 0 931.7 0 74
2020-01-20 01:00:00 1.2 16 Norte 35 Norte 0 931.7 0.1 73
2020-01-20 00:00:00 1.5 20 Norte 35 Norte 0 931.6 -0.1 71
2020-01-19 23:00:00 1.7 21 Norte 40 Norte 0 931.7 0.3 76
2020-01-19 22:00:00 1.9 22 Norte 37 Norte 0.2 931.6 0.6 80
2020-01-19 21:00:00 1.6 17 Norte 28 Norte 0.2 931.7 1.1 91
2020-01-19 20:00:00 1.4 15 Norte 23 Norte 2 931.4 1.5 95
2020-01-19 19:00:00 1.2 9 Norte 14 Norte 2.6 931 1.7 96
2020-01-19 18:00:00 1.2 6 Este 10 Este 3.2 930.6 1.6 94
2020-01-19 17:00:00 1.4 6 Este 20 Nordeste 4.6 929.9 1.3 93
2020-01-19 16:00:00 1.4 7 Nordeste 18 Noroeste 3.2 929.3 0.4 95
2020-01-19 15:00:00 1.1 12 Norte 30 Norte 2.6 929 -0.6 91
2020-01-19 14:00:00 3.5 20 Norte 31 Norte 2 928.6 -0.7 89
2020-01-19 13:00:00 2.6 19 Norte 29 Norte 2.2 928.9 0.9 93
2020-01-19 12:00:00 2.7 8 Noroeste 40 Nordeste 1.4 929.6 2 91
2020-01-19 11:00:00 4.7 18 Norte 33 Norte 0 929.3 1.9 80
2020-01-19 10:00:00 4.7 25 Norte 33 Norte 0 928 0.7 75
2020-01-19 09:00:00 4.5 21 Norte 29 Norte 0 927.6 -0.4 75
2020-01-19 08:00:00 4.6 21 Norte 42 Norte 0 927.4 -1.2 72
2020-01-19 07:00:00 5.2 27 Norte 37 Norte 0 927.3 -2.2 72
2020-01-19 06:00:00 5.4 28 Norte 45 Norte 0 928 -1.7 73
2020-01-19 05:00:00 6.3 19 Noroeste 28 Norte 0.2 928.6 -2 78
2020-01-19 04:00:00 5.8 6 Norte 14 Oeste 0 929.5 -1.1 87
2020-01-19 03:00:00 6.6 10 Oeste 15 Oeste 0 929.7 -1.8 84
2020-01-19 02:00:00 7.7 9 Noroeste 19 Noroeste 0 930.6 -1.4 78
2020-01-19 01:00:00 7.8 3 Noroeste 42 Oeste 0.4 930.6 -1.9 84
2020-01-19 00:00:00 9 18 Oeste 31 Oeste 0 931.5 -1.5 87
2020-01-18 23:00:00 8.7 10 Sudoeste 24 Oeste 0.2 932 -2.1 90
2020-01-18 22:00:00 8.4 15 Oeste 24 Sudoeste 0.2 932.5 -2.1 91
2020-01-18 21:00:00 8.5 10 Sudoeste 22 Sudoeste 0 933 -1.8 89
2020-01-18 20:00:00 8.4 9 Sudoeste 16 Sudoeste 0 934.1 -1.5 90
2020-01-18 19:00:00 8.6 9 Sudoeste 24 Oeste 0 934.6 -1.9 87
2020-01-18 18:00:00 9.3 14 Sudoeste 30 Sudoeste 0 934.8 -2.6 79
2020-01-18 17:00:00 10.1 17 Oeste 31 Oeste 0 935.6 -2.7 72
2020-01-18 16:00:00 10.4 19 Oeste 37 Oeste 0 936.5 -3.5 68
2020-01-18 15:00:00 10.8 25 Oeste 38 Oeste 0 937.4 -4.1 62
2020-01-18 14:00:00 10.9 26 Oeste 39 Oeste 0 938.3 -3.9 60
2020-01-18 13:00:00 10.5 22 Oeste 31 Oeste 0 940 -1.8 63
2020-01-18 12:00:00 8.4 12 Oeste 20 Oeste 0 941.5 -0.4 76
2020-01-18 11:00:00 5 4 Sudeste 13 Sudeste 0 942.2 0.5 85
2020-01-18 10:00:00 4.2 6 Sudeste 18 Sudoeste 0 941.8 0.4 82
2020-01-18 09:00:00 4.4 13 Sudoeste 19 Sudoeste 0 941.9 1.2 80
2020-01-18 08:00:00 3.2 3 Noroeste 11 Oeste 0 941.7 0.5 84
2020-01-18 07:00:00 2.4 4 Oeste 17 Noroeste 0 941.4 -0.5 87
2020-01-18 06:00:00 1.9 8 Norte 11 Nordeste 0 940.7 -1.9 86
2020-01-18 05:00:00 2.3 3 Noroeste 8 Oeste 0 941.2 -1.9 86
2020-01-18 04:00:00 3.1 0 Calma 13 Oeste 0 941.9 -1.6 83
2020-01-18 03:00:00 3.2 11 Oeste 14 Noroeste 0 942.6 -0.4 84
2020-01-18 02:00:00 2.8 4 Oeste 10 Norte 0 943.1 0.2 84
2020-01-18 01:00:00 3.1 4 Oeste 9 Nordeste 0 943.5 0.8 82
2020-01-18 00:00:00 4.3 7 Norte 14 Oeste 0 943 0.8 77
2020-01-17 23:00:00 4.7 13 Oeste 19 Oeste 0 942.9 1 77
2020-01-17 22:00:00 5.5 16 Sudoeste 19 Oeste 0 942.7 1.1 72
2020-01-17 21:00:00 6.5 12 Noroeste 26 Oeste 0 942.2 1.2 67
2020-01-17 20:00:00 7.2 19 Oeste 25 Oeste 0 941.9 1.5 63
2020-01-17 19:00:00 8.9 12 Noroeste 26 Noroeste 0 941.6 1.3 56
2020-01-17 18:00:00 10.7 19 Noroeste 42 Noroeste 0 941 0.5 51
2020-01-17 17:00:00 12.2 31 Noroeste 41 Noroeste 0 940.4 -0.8 45
2020-01-17 16:00:00 12.4 24 Noroeste 39 Noroeste 0 940.3 -1.6 47
2020-01-17 15:00:00 11.8 21 Oeste 35 Oeste 0 940.5 -1.6 52
2020-01-17 14:00:00 10.9 21 Oeste 44 Noroeste 0 941.2 -0.4 54
2020-01-17 13:00:00 10.4 30 Noroeste 45 Noroeste 0 941.9 0.6 55
2020-01-17 12:00:00 10.4 21 Noroeste 36 Noroeste 0 942.1 1.2 56
2020-01-17 11:00:00 10.3 10 Sudoeste 25 Noroeste 0 941.6 1.5 56
2020-01-17 10:00:00 8 8 Noroeste 15 Oeste 0 941.3 1.8 63
2020-01-17 09:00:00 6.2 7 Oeste 20 Noroeste 0 940.9 1.9 66
2020-01-17 08:00:00 6.1 7 Noroeste 15 Oeste 0 940.1 1.2 61
2020-01-17 07:00:00 6.3 7 Oeste 16 Norte 0 939.5 0.1 59
2020-01-17 06:00:00 4.3 7 Noroeste 15 Oeste 0 939 -0.5 65
2020-01-17 05:00:00 4.9 9 Noroeste 21 Oeste 0 938.9 -0.4 62
2020-01-17 04:00:00 6.1 15 Noroeste 23 Oeste 0 939.4 -0.2 57
2020-01-17 03:00:00 3.9 8 Oeste 17 Oeste 0 939.5 0.1 69
2020-01-17 02:00:00 2 7 Oeste 11 Oeste 0 939.3 -0.1 80
2020-01-17 01:00:00 1.8 0 Calma 9 Norte 0 939.6 0.4 88
2020-01-17 00:00:00 1.3 6 Noroeste 8 Norte 0 939.4 0.4 81
2020-01-16 23:00:00 3.5 3 Noroeste 10 Sudoeste 0 939.4 0.7 80
2020-01-16 22:00:00 4 7 Noroeste 10 Noroeste 0 939.2 0.7 76
2020-01-16 21:00:00 5.2 8 Norte 9 Norte 0 939 1.1 76
2020-01-16 20:00:00 7.3 3 Oeste 12 Sudoeste 0 938.7 0.9 67
2020-01-16 19:00:00 9.8 9 Sudoeste 13 Sudoeste 0 938.5 0.6 58
2020-01-16 18:00:00 13 9 Sudoeste 19 Sudoeste 0 937.9 -0.1 49
2020-01-16 17:00:00 14.5 14 Sudoeste 22 Sudoeste 0 937.8 -0.7 47
2020-01-16 16:00:00 14.5 15 Oeste 27 Sudoeste 0 937.9 -1.5 48
2020-01-16 15:00:00 15.5 10 Sudoeste 19 Sur 0 938 -2.1 46
2020-01-16 14:00:00 14.5 7 Sur 18 Sudeste 0 938.5 -1.8 51
2020-01-16 13:00:00 12.9 10 Sudeste 17 Sudeste 0 939.4 -0.6 59
2020-01-16 12:00:00 10.9 9 Sudeste 13 Sudeste 0 940.1 0.1 66
2020-01-16 11:00:00 8.6 4 Oeste 8 Oeste 0 940.3 0.4 76
2020-01-16 10:00:00 2.6 0 Calma 10 Noroeste 0 940 0.5 90
2020-01-16 09:00:00 -0.9 5 Oeste 9 Noroeste 0 940 0.5 97
2020-01-16 08:00:00 -0.9 5 Oeste 9 Noroeste 0 939.9 0.5 97
2020-01-16 07:00:00 -0.9 7 Oeste 9 Noroeste 0 939.5 0 96
2020-01-16 06:00:00 0.5 4 Sur 8 Norte 0 939.5 0.2 96
2020-01-16 05:00:00 1.1 4 Noroeste 11 Norte 0 939.4 0 95
2020-01-16 04:00:00 1.3 8 Noroeste 11 Norte 0 939.5 0 91
2020-01-16 03:00:00 2 9 Noroeste 11 Norte 0 939.3 -0.2 90
2020-01-16 02:00:00 3 7 Norte 12 Norte 0 939.4 -0.1 87
2020-01-16 01:00:00 4.1 6 Norte 11 Noroeste 0 939.5 0.3 83
2020-01-16 00:00:00 5.6 8 Noroeste 10 Oeste 0 939.5 0.4 80
2020-01-15 23:00:00 6 7 Noroeste 11 Noroeste 0 939.5 0.5 79
2020-01-15 22:00:00 5.2 10 Oeste 12 Noroeste 0 939.2 0.8 82
2020-01-15 21:00:00 5 12 Noroeste 15 Noroeste 0 939.1 1.2 80
2020-01-15 20:00:00 6.4 13 Norte 17 Noroeste 0 939 1.7 74
2020-01-15 19:00:00 7.1 13 Oeste 21 Oeste 0 938.4 1.5 70
2020-01-15 18:00:00 10 15 Oeste 37 Noroeste 0 937.9 1.2 59
2020-01-15 17:00:00 12 22 Noroeste 38 Noroeste 0 937.3 0.2 51
2020-01-15 16:00:00 12.4 22 Noroeste 41 Oeste 0 936.9 -0.6 48
2020-01-15 15:00:00 13.4 26 Oeste 41 Noroeste 0 936.7 -0.9 39
2020-01-15 14:00:00 12.3 19 Oeste 26 Oeste 0 937.1 -0.2 52
2020-01-15 13:00:00 10.8 14 Oeste 27 Noroeste 0 937.5 1 59
2020-01-15 12:00:00 10 18 Oeste 23 Oeste 0 937.6 1.6 63
2020-01-15 11:00:00 7.9 10 Oeste 20 Oeste 0 937.3 1.8 71
2020-01-15 10:00:00 4.3 8 Sudoeste 18 Noroeste 0 936.5 1.5 78
2020-01-15 09:00:00 2.3 13 Oeste 19 Oeste 0 936 1.3 87
2020-01-15 08:00:00 3.7 14 Noroeste 22 Noroeste 0 935.5 0.8 81
2020-01-15 07:00:00 4.3 17 Noroeste 28 Noroeste 0 935 0.2 79
2020-01-15 06:00:00 4 16 Noroeste 22 Noroeste 0 934.7 0 79
2020-01-15 05:00:00 2.7 10 Noroeste 17 Noroeste 0 934.7 0.2 81
2020-01-15 04:00:00 2.6 12 Noroeste 19 Norte 0 934.8 0.1 79
2020-01-15 03:00:00 2.8 11 Noroeste 19 Norte 0 934.7 -0.1 77
2020-01-15 02:00:00 3.2 15 Norte 24 Norte 0 934.5 -0.1 75
2020-01-15 01:00:00 2.2 11 Noroeste 19 Noroeste 0 934.7 0.1 77
2020-01-15 00:00:00 3.7 17 Oeste 23 Noroeste 0 934.8 0.4 71
2020-01-14 23:00:00 4 12 Noroeste 22 Noroeste 0 934.6 0.5 68
2020-01-14 22:00:00 3.4 8 Noroeste 23 Oeste 0 934.6 1.2 70
2020-01-14 21:00:00 3.6 14 Oeste 17 Oeste 0 934.4 1.5 69
2020-01-14 20:00:00 5.5 11 Oeste 21 Noroeste 0 934.1 1.4 59
2020-01-14 19:00:00 6.4 11 Sudoeste 17 Sudoeste 0 933.4 0.9 54
2020-01-14 18:00:00 10.3 10 Sudoeste 19 Sudoeste 0 932.9 0.1 43
2020-01-14 17:00:00 12.5 14 Sudoeste 21 Sudoeste 0 932.7 -0.5 36
2020-01-14 16:00:00 13.2 12 Sudoeste 19 Sudoeste 0 932.5 -1.5 36
2020-01-14 15:00:00 12.5 12 Sudoeste 22 Sudoeste 0 932.8 -2 40
2020-01-14 14:00:00 11.5 13 Sudoeste 21 Oeste 0 933.2 -1.6 41
2020-01-14 13:00:00 8.5 7 Sudeste 12 Este 0 934 -0.4 47
2020-01-14 12:00:00 5.9 5 Este 9 Sudeste 0 934.8 0.8 57
2020-01-14 11:00:00 3 0 Calma 8 Sudeste 0 934.8 0.8 68
2020-01-14 10:00:00 -1.1 0 Calma 5 Nordeste 0 934.4 0.8 78
2020-01-14 09:00:00 -4.5 5 Noroeste 8 Noroeste 0 934 0.7 89
2020-01-14 08:00:00 -3.2 3 Norte 9 Sudeste 0 934 0.5 87
2020-01-14 07:00:00 -1.4 6 Este 8 Este 0 933.6 -0.3 83
2020-01-14 06:00:00 -0.3 3 Este 19 Sudoeste 0 933.3 -0.7 79
2020-01-14 05:00:00 1 6 Sudoeste 14 Oeste 0 933.5 -0.9 73
2020-01-14 04:00:00 -0.8 6 Sur 16 Oeste 0 933.9 -0.8 81
2020-01-14 03:00:00 0.2 11 Oeste 18 Noroeste 0 934 -0.8 76
2020-01-14 02:00:00 1.1 5 Sudoeste 16 Norte 0 934.4 -0.5 72
2020-01-14 01:00:00 1.3 5 Noroeste 17 Norte 0 934.7 -0.4 71
2020-01-14 00:00:00 1.3 8 Sudoeste 13 Sudoeste 0 934.8 -0.5 71
2020-01-13 23:00:00 2.9 7 Sudoeste 9 Sudoeste 0 934.9 -0.2 66
2020-01-13 22:00:00 3.8 8 Norte 19 Noroeste 0 935.1 0.1 60
2020-01-13 21:00:00 3.7 4 Noroeste 12 Oeste 0 935.3 0.5 56
2020-01-13 20:00:00 5.8 2 Oeste 10 Este 0 935.1 0.5 47
2020-01-13 19:00:00 6.5 3 Sudeste 22 Oeste 0 935 0.4 44
2020-01-13 18:00:00 8.5 14 Oeste 23 Oeste 0 934.8 0.1 35
2020-01-13 17:00:00 10.9 14 Oeste 26 Oeste 0 934.6 -1.2 34
2020-01-13 16:00:00 11.8 15 Sudoeste 23 Oeste 0 934.6 -2 28
2020-01-13 15:00:00 12 13 Oeste 25 Oeste 0 934.7 -3 26
2020-01-13 14:00:00 11 21 Oeste 27 Oeste 0 935.8 -2.3 29
2020-01-13 13:00:00 9.3 6 Este 15 Este 0 936.6 -1.3 37
2020-01-13 12:00:00 6.4 6 Sudeste 9 Sudeste 0 937.7 0.1 50
2020-01-13 11:00:00 2.9 4 Sudeste 8 Sudeste 0 938.1 0.3 59
2020-01-13 10:00:00 -1.7 2 Oeste 5 Norte 0 937.9 0.3 76
2020-01-13 09:00:00 -5 4 Oeste 6 Oeste 0 937.6 -0.2 83
2020-01-13 08:00:00 -5.6 4 Norte 8 Oeste 0 937.8 -0.5 86
2020-01-13 07:00:00 -5.8 5 Oeste 9 Noroeste 0 937.6 -1.3 85
2020-01-13 06:00:00 -4.9 5 Noroeste 9 Oeste 0 937.8 -1.3 85
2020-01-13 05:00:00 -4.2 6 Oeste 8 Sudoeste 0 938.3 -1.1 80
2020-01-13 04:00:00 -4.2 5 Oeste 8 Noroeste 0 938.9 -1.2 83
2020-01-13 03:00:00 -4.3 5 Noroeste 8 Oeste 0 939.1 -1.6 80
2020-01-13 02:00:00 -3.8 5 Noroeste 7 Noroeste 0 939.4 -1.4 79
2020-01-13 01:00:00 -3.6 4 Oeste 8 Noroeste 0 940.1 -0.7 75
2020-01-13 00:00:00 -2.2 6 Noroeste 11 Noroeste 0 940.7 -0.1 68
2020-01-12 23:00:00 -1.3 7 Noroeste 9 Noroeste 0 940.8 0 63
2020-01-12 22:00:00 -0.7 5 Norte 13 Noroeste 0 940.8 0.5 62
2020-01-12 21:00:00 -0.4 8 Noroeste 13 Noroeste 0 940.8 1 59
2020-01-12 20:00:00 1.9 4 Noroeste 13 Norte 0 940.8 1.3 53
2020-01-12 19:00:00 5.4 3 Noroeste 11 Noroeste 0 940.3 0.9 41
2020-01-12 18:00:00 10.4 4 Sudoeste 12 Sur 0 939.8 0.4 30
2020-01-12 17:00:00 11.8 9 Sur 13 Sur 0 939.5 -0.4 27
2020-01-12 16:00:00 12.3 8 Sur 17 Sudeste 0 939.4 -1.2 23
2020-01-12 15:00:00 11.9 11 Sur 15 Sur 0 939.4 -2.1 28
2020-01-12 14:00:00 11.2 9 Sudeste 17 Sudeste 0 939.9 -1.6 30
2020-01-12 13:00:00 7.6 8 Sudeste 13 Sudeste 0 940.6 -0.2 51
2020-01-12 12:00:00 5 5 Sudeste 8 Sudeste 0 941.5 0.9 56
2020-01-12 11:00:00 1.7 5 Sudeste 10 Sudeste 0 941.5 1 69
2020-01-12 10:00:00 -1.5 3 Sudeste 6 Sur 0 940.8 0.4 76
2020-01-12 09:00:00 -5.6 4 Este 9 Oeste 0 940.6 0.6 87
2020-01-12 08:00:00 -4.9 6 Noroeste 9 Noroeste 0 940.5 0.1 87
2020-01-12 07:00:00 -5.1 4 Oeste 10 Noroeste 0 940.4 -0.2 90
2020-01-12 06:00:00 -4.8 6 Noroeste 13 Noroeste 0 940 -0.8 84
2020-01-12 05:00:00 -4.5 7 Noroeste 9 Noroeste 0 940.4 -0.4 82
2020-01-12 04:00:00 -3.2 5 Norte 8 Norte 0 940.6 -0.4 83
2020-01-12 03:00:00 -2.3 4 Oeste 9 Oeste 0 940.8 -0.5 82
2020-01-12 02:00:00 -2 9 Oeste 10 Oeste 0 940.8 -0.5 83
2020-01-12 01:00:00 -2.3 6 Norte 9 Noroeste 0 941 -0.3 83
2020-01-12 00:00:00 -1 9 Noroeste 12 Noroeste 0 941.3 0 80
2020-01-11 23:00:00 -0.5 6 Noroeste 13 Noroeste 0 941.3 0.2 81
2020-01-11 22:00:00 -0.2 10 Noroeste 12 Noroeste 0 941.3 0.7 77
2020-01-11 21:00:00 1.2 5 Noroeste 7 Noroeste 0 941.3 1.3 71
2020-01-11 20:00:00 5.2 4 Este 7 Este 0 941.1 1.1 60
2020-01-11 19:00:00 6.8 3 Noroeste -- -- 0 940.6 0.6 54
2020-01-11 18:00:00 9.6 -- -- -- -- 0 940 -0.1 46
2020-01-11 17:00:00 11.6 12 Sur 18 Sur 0 940 -0.7 40
2020-01-11 16:00:00 12.2 11 Sur 18 Sur 0 940 -1.6 39
2020-01-11 15:00:00 12.1 12 Sudoeste 21 Sur 0 940.1 -2.3 39
2020-01-11 14:00:00 11.8 10 Sudoeste 17 Sudoeste 0 940.7 -1.7 39
2020-01-11 13:00:00 11.2 4 Sudoeste 11 Oeste 0 941.6 -0.2 36
2020-01-11 12:00:00 9.1 6 Noroeste 16 Noroeste 0 942.4 1.1 45
2020-01-11 11:00:00 6.5 12 Noroeste 15 Noroeste 0 942.4 1.5 60
2020-01-11 10:00:00 3.2 10 Noroeste 15 Noroeste 0 941.8 1.1 74
2020-01-11 09:00:00 0.4 8 Noroeste 19 Noroeste 0 941.3 1 82
2020-01-11 08:00:00 0.2 14 Noroeste 18 Noroeste 0 940.9 0.5 83
2020-01-11 07:00:00 0.9 14 Noroeste 20 Noroeste 0 940.7 0.2 80
2020-01-11 06:00:00 1.4 15 Noroeste 21 Noroeste 0 940.3 -0.2 78
2020-01-11 05:00:00 1.3 15 Noroeste 18 Noroeste 0 940.4 0.6 80
2020-01-11 04:00:00 2 14 Noroeste 22 Noroeste 0 940.5 0.9 77
2020-01-11 03:00:00 2 13 Noroeste 19 Noroeste 0 940.5 0.7 75
2020-01-11 02:00:00 2.6 14 Norte 23 Noroeste 0 939.8 0.1 73
2020-01-11 01:00:00 1.8 10 Noroeste 19 Norte 0 939.6 0.1 77
2020-01-11 00:00:00 4.2 13 Norte 33 Norte 0 939.8 0.7 68
2020-01-10 23:00:00 3.9 21 Norte 32 Norte 0 939.7 0.6 68
2020-01-10 22:00:00 2.9 10 Oeste 31 Norte 0 939.5 1.3 70
2020-01-10 21:00:00 3.9 18 Norte 24 Norte 0 939.1 1.5 67
2020-01-10 20:00:00 4.8 17 Norte 31 Norte 0 939.1 2.2 63
2020-01-10 19:00:00 6.5 19 Norte 36 Norte 0 938.2 1.6 56
2020-01-10 18:00:00 8.1 27 Norte 46 Norte 0 937.6 1.6 50
2020-01-10 17:00:00 10.9 29 Norte 42 Norte 0 936.9 0.6 39
2020-01-10 16:00:00 11.3 27 Norte 49 Norte 0 936.6 -0.2 37
2020-01-10 15:00:00 11.6 33 Norte 50 Norte 0 936 -1.1 39
2020-01-10 14:00:00 11.3 27 Norte 49 Norte 0 936.3 -1.1 38
2020-01-10 13:00:00 10.5 25 Norte 51 Norte 0 936.8 -0.6 42
2020-01-10 12:00:00 8.8 36 Norte 51 Norte 0 937.1 0.4 47
2020-01-10 11:00:00 8.8 30 Norte 52 Norte 0 937.4 1.6 49
2020-01-10 10:00:00 6.1 13 Noroeste 24 Norte 0 937.4 2 66
2020-01-10 09:00:00 5.3 15 Noroeste 41 Norte 0 936.7 1.6 74
2020-01-10 08:00:00 5.4 23 Noroeste 33 Norte 0 935.8 0.8 75
2020-01-10 07:00:00 0.5 4 Noroeste 6 Noroeste 0 935.4 0.1 97
2020-01-10 06:00:00 -0.5 4 Noroeste 7 Sudeste 0 935.1 -0.2 92
2020-01-10 05:00:00 0.7 4 Sur 6 Este 0 935 -0.4 91
2020-01-10 04:00:00 1.8 5 Este 9 Este 0 935.3 -0.3 89
2020-01-10 03:00:00 1.1 6 Sur 11 Oeste 0 935.3 -0.5 92
2020-01-10 02:00:00 0.6 4 Norte 10 Oeste 0 935.4 -0.9 92
2020-01-10 01:00:00 1.5 5 Sudoeste 14 Sudoeste 0 935.6 -1 86
2020-01-10 00:00:00 2.7 4 Sudoeste 10 Oeste 0 935.8 -0.2 90
2020-01-09 23:00:00 2.3 0 Calma 13 Noroeste 0 936.3 -0.8 89
2020-01-09 22:00:00 1.9 10 Noroeste 13 Noroeste 0 936.6 -0.5 89
2020-01-09 21:00:00 3.4 3 Sudeste 6 Sur 0 936 -0.3 82
2020-01-09 20:00:00 4.5 5 Norte 8 Noroeste 0 937.1 0.7 81
2020-01-09 19:00:00 7.6 0 Calma 9 Sur 0 937.1 0.5 67
2020-01-09 18:00:00 9.1 7 Sur 10 Sur 0 936.3 -0.8 62
2020-01-09 17:00:00 11.6 8 Sur 14 Sudeste 0 936.4 -1.1 56
2020-01-09 16:00:00 12 9 Sur 18 Sur 0 936.6 -1.7 53
2020-01-09 15:00:00 11.8 12 Sur 18 Sur 0 937.1 -2 58
2020-01-09 14:00:00 13.2 6 Sur 11 Sur 0 937.5 -2.2 50
2020-01-09 13:00:00 12 3 Sur 7 Oeste 0 938.3 -1.1 54
2020-01-09 12:00:00 8.4 3 Noroeste 6 Noroeste 0 939.1 0 75
2020-01-09 11:00:00 4.9 3 Noroeste 7 Noroeste 0 939.7 0.4 86
2020-01-09 10:00:00 0.5 5 Oeste 7 Noroeste 0 939.4 0 97
2020-01-09 09:00:00 -1.8 4 Noroeste 11 Noroeste 0 939.1 -0.4 98
2020-01-09 08:00:00 -2.2 10 Noroeste 13 Noroeste 0 939.3 -0.6 97
2020-01-09 07:00:00 -1.5 7 Noroeste 10 Noroeste 0 939.4 -1 97
2020-01-09 06:00:00 -1.4 5 Noroeste 8 Noroeste 0 939.5 -1.2 97
2020-01-09 05:00:00 -1.5 0 Calma 8 Noroeste 0 939.9 -0.9 97
2020-01-09 04:00:00 -1.7 6 Noroeste 8 Noroeste 0 940.4 -0.6 96
2020-01-09 03:00:00 -1.4 5 Noroeste 9 Noroeste 0 940.7 -0.7 95
2020-01-09 02:00:00 -0.1 4 Noroeste 9 Norte 0 940.8 -0.7 95
2020-01-09 01:00:00 0.3 0 Calma 8 Norte 0 941 -0.5 95
2020-01-09 00:00:00 0.6 4 Noroeste 9 Noroeste 0 941.4 -0.1 92
2020-01-08 23:00:00 1.6 4 Norte 13 Noroeste 0 941.5 -0.1 89
2020-01-08 22:00:00 2.6 7 Noroeste 9 Noroeste 0 941.5 0 90
2020-01-08 21:00:00 3.3 4 Noroeste 11 Noroeste 0 941.5 0.3 85
2020-01-08 20:00:00 4.9 8 Norte 12 Este 0 941.6 0.8 81
2020-01-08 19:00:00 7.1 5 Este 14 Sudeste 0 941.5 0.8 80
2020-01-08 18:00:00 8.4 11 Sudeste 24 Sudeste 0 941.2 0.7 72
2020-01-08 17:00:00 10.1 19 Sudeste 26 Sudeste 0 940.8 0.1 69
2020-01-08 16:00:00 10.8 21 Sudeste 33 Sudeste 0 940.7 -0.5 72
2020-01-08 15:00:00 12 24 Sudeste 31 Sudeste 0 940.5 -1.2 65
2020-01-08 14:00:00 13.3 22 Sudeste 32 Sudeste 0 940.7 -1 56
2020-01-08 13:00:00 13.1 11 Sudeste 18 Sudeste 0 941.2 0.2 52
2020-01-08 12:00:00 10.8 2 Este 5 Sudeste 0 941.7 1.3 51
2020-01-08 11:00:00 6.8 4 Sudeste 8 Sudeste 0 941.7 1.7 66
2020-01-08 10:00:00 2.4 2 Oeste 8 Noroeste 0 941 1.5 83
2020-01-08 09:00:00 -1.4 8 Noroeste 9 Noroeste 0 940.4 1 90
2020-01-08 08:00:00 -1.7 2 Este 5 Nordeste 0 940 0.5 86
2020-01-08 07:00:00 -1.5 0 Calma 7 Noroeste 0 939.5 -0.4 88
2020-01-08 06:00:00 -2.2 6 Oeste 7 Oeste 0 939.4 -0.6 85
2020-01-08 05:00:00 -1.9 4 Oeste 6 Oeste 0 939.5 -0.6 91
2020-01-08 04:00:00 -1.2 3 Oeste 5 Noroeste 0 939.9 -0.5 93
2020-01-08 03:00:00 -2 3 Oeste 6 Oeste 0 940 -0.8 89
2020-01-08 02:00:00 -1.1 3 Oeste 8 Noroeste 0 940.1 -0.8 86
2020-01-08 01:00:00 -0.3 5 Noroeste 8 Noroeste 0 940.4 -0.5 81
2020-01-08 00:00:00 -1.2 3 Oeste 9 Oeste 0 940.8 0 84
2020-01-07 23:00:00 0.2 4 Noroeste 9 Norte 0 940.9 0.1 85
2020-01-07 22:00:00 1.2 6 Noroeste 10 Noroeste 0 940.9 0.4 79
2020-01-07 21:00:00 2.7 8 Norte 9 Norte 0 940.8 0.7 75
2020-01-07 20:00:00 4.1 6 Noroeste 9 Norte 0 940.8 1 70
2020-01-07 19:00:00 7.8 4 Noroeste 10 Sudeste 0 940.5 0.7 56
2020-01-07 18:00:00 11.7 9 Sudeste 14 Sur 0 940.1 0.2 43
2020-01-07 17:00:00 14.1 10 Sur 13 Sur 0 939.8 -0.9 37
2020-01-07 16:00:00 15.4 7 Sur 13 Sudeste 0 939.8 -1.9 33
2020-01-07 15:00:00 13.6 11 Este 18 Sudeste 0 939.9 -2.6 40
2020-01-07 14:00:00 11.8 10 Sudeste 17 Este 0 940.7 -1.9 46
2020-01-07 13:00:00 10.7 7 Sudeste 12 Sudeste 0 941.7 -0.7 51
2020-01-07 12:00:00 8.4 3 Sudeste 7 Sudeste 0 942.5 0.6 53
2020-01-07 11:00:00 5 2 Este 5 Sur 0 942.6 1.2 60
2020-01-07 10:00:00 1.2 2 Sur 6 Norte 0 942.4 1 75
2020-01-07 09:00:00 -2.6 4 Noroeste 9 Noroeste 0 941.9 0.4 82
2020-01-07 08:00:00 -2.5 4 Oeste 6 Noroeste 0 941.4 0 86
2020-01-07 07:00:00 -3 5 Norte 12 Oeste 0 941.4 -0.1 84
2020-01-07 06:00:00 -2.7 5 Noroeste 8 Noroeste 0 941.5 0 87
2020-01-07 05:00:00 -2.5 4 Noroeste 8 Noroeste 0 941.4 0.2 83
2020-01-07 04:00:00 -2.2 0 Calma 6 Noroeste 0 941.5 0.2 83
2020-01-07 03:00:00 -1.2 3 Noroeste 7 Oeste 0 941.5 0.4 79
2020-01-07 02:00:00 -1.1 5 Oeste 8 Oeste 0 941.2 0.2 79
2020-01-07 01:00:00 -0.4 4 Sudoeste 8 Noroeste 0 941.3 0.7 76
2020-01-07 00:00:00 0 3 Oeste 12 Noroeste 0 941.1 0.9 75
2020-01-06 23:00:00 1.5 6 Noroeste 10 Noroeste 0 941 1 68
2020-01-06 22:00:00 2.3 6 Noroeste 12 Noroeste 0 940.6 1 66
2020-01-06 21:00:00 3.6 8 Noroeste 12 Noroeste 0 940.2 1 60
2020-01-06 20:00:00 4.3 8 Noroeste 9 Noroeste 0 940 1.2 59
2020-01-06 19:00:00 9.1 3 Noroeste 8 Sudeste 0 939.6 1 40
2020-01-06 18:00:00 12.5 6 Sudeste 13 Sur 0 939.2 0.7 31
2020-01-06 17:00:00 15.4 10 Sur 15 Sudoeste 0 938.8 -0.4 26
2020-01-06 16:00:00 16.8 10 Sudoeste 17 Sudoeste 0 938.6 -1.1 18
2020-01-06 15:00:00 16.3 12 Sudoeste 21 Sudoeste 0 938.5 -2.2 14
2020-01-06 14:00:00 15.7 14 Oeste 19 Sudoeste 0 939.2 -1.6 16
2020-01-06 13:00:00 13.4 6 Sudeste 12 Sudeste 0 939.7 -0.9 36
2020-01-06 12:00:00 11 4 Sudeste 7 Oeste 0 940.7 0 49
2020-01-06 11:00:00 6 5 Oeste 11 Noroeste 0 940.8 0.6 68
2020-01-06 10:00:00 1.2 6 Noroeste 10 Oeste 0 940.6 0.8 81